createdAt,value
2023-05-05T00:01:36.058Z,100680.20
2023-05-05T00:04:09.592Z,100679.40
2023-05-05T00:06:43.113Z,100680.60
2023-05-05T00:09:16.258Z,100679.60
2023-05-05T00:11:49.602Z,100678.40
2023-05-05T00:14:22.820Z,100672.00
2023-05-05T00:16:55.998Z,100679.20
2023-05-05T00:19:29.277Z,100677.00
2023-05-05T00:22:02.493Z,100680.80
2023-05-05T00:24:36.175Z,100686.80
2023-05-05T00:27:09.469Z,100682.20
2023-05-05T00:29:42.659Z,100677.60
2023-05-05T00:32:16.265Z,100672.80
2023-05-05T00:34:50.201Z,100673.20
2023-05-05T00:37:23.365Z,100674.20
2023-05-05T00:39:56.551Z,100668.20
2023-05-05T00:42:39.561Z,100664.20
2023-05-05T00:45:15.355Z,100665.20
2023-05-05T00:47:53.420Z,100665.20
2023-05-05T00:50:30.262Z,100666.20
2023-05-05T00:53:06.967Z,100666.40
2023-05-05T00:55:40.596Z,100665.40
2023-05-05T00:58:14.728Z,100663.60
2023-05-05T01:00:47.896Z,100663.40
2023-05-05T01:03:21.259Z,100659.80
2023-05-05T01:06:08.200Z,100662.80
2023-05-05T01:08:56.755Z,100658.40
2023-05-05T01:11:43.445Z,100655.80
2023-05-05T01:14:24.439Z,100649.80
2023-05-05T01:17:05.494Z,100651.20
2023-05-05T01:20:10.586Z,100643.80
2023-05-05T01:22:52.650Z,100647.80
2023-05-05T01:26:06.308Z,100646.60
2023-05-05T01:29:23.966Z,100644.60
2023-05-05T01:32:02.572Z,100639.60
2023-05-05T01:34:45.182Z,100640.20
2023-05-05T01:37:28.092Z,100638.40
2023-05-05T01:40:08.234Z,100641.20
2023-05-05T01:42:46.256Z,100639.80
2023-05-05T01:45:23.618Z,100635.60
2023-05-05T01:47:59.985Z,100635.40
2023-05-05T01:50:34.957Z,100628.80
2023-05-05T01:53:09.908Z,100631.00
2023-05-05T01:55:44.824Z,100628.20
2023-05-05T01:58:19.431Z,100626.60
2023-05-05T02:00:55.151Z,100629.80
2023-05-05T02:03:32.175Z,100625.60
2023-05-05T02:06:09.054Z,100629.60
2023-05-05T02:08:43.959Z,100633.20
2023-05-05T02:11:18.577Z,100633.60
2023-05-05T02:13:55.032Z,100629.60
2023-05-05T02:16:31.292Z,100625.20
2023-05-05T02:19:06.370Z,100627.60
2023-05-05T02:21:40.688Z,100623.40
2023-05-05T02:24:14.067Z,100626.60
2023-05-05T02:26:51.289Z,100628.00
2023-05-05T02:29:33.766Z,100627.40
2023-05-05T02:32:15.479Z,100630.40
2023-05-05T02:34:53.131Z,100634.20
2023-05-05T02:37:31.067Z,100623.60
2023-05-05T02:40:09.053Z,100619.60
2023-05-05T02:42:49.596Z,100622.40
2023-05-05T02:45:25.932Z,100621.20
2023-05-05T02:48:02.680Z,100624.20
2023-05-05T02:50:37.297Z,100625.40
2023-05-05T02:53:28.817Z,100626.80
2023-05-05T02:56:17.687Z,100623.60
2023-05-05T02:59:05.804Z,100623.60
2023-05-05T03:01:56.945Z,100622.20
2023-05-05T03:04:39.745Z,100627.20
2023-05-05T03:07:19.688Z,100628.80
2023-05-05T03:10:08.702Z,100630.80
2023-05-05T03:12:54.542Z,100634.00
2023-05-05T03:15:42.091Z,100632.60
2023-05-05T03:18:17.731Z,100634.00
2023-05-05T03:20:55.110Z,100639.80
2023-05-05T03:23:28.807Z,100639.20
2023-05-05T03:26:04.716Z,100638.60
2023-05-05T03:28:41.251Z,100636.40
2023-05-05T03:31:22.180Z,100640.60
2023-05-05T03:33:58.626Z,100643.20
2023-05-05T03:36:35.437Z,100642.80
2023-05-05T03:39:09.469Z,100639.40
2023-05-05T03:41:42.671Z,100641.20
2023-05-05T03:44:16.035Z,100645.20
2023-05-05T03:46:49.449Z,100636.00
2023-05-05T03:49:22.926Z,100640.20
2023-05-05T03:51:56.461Z,100638.60
2023-05-05T03:54:29.843Z,100630.40
2023-05-05T03:57:03.145Z,100628.60
2023-05-05T03:59:36.435Z,100632.00
2023-05-05T04:02:09.946Z,100635.20
2023-05-05T04:04:43.333Z,100634.00
2023-05-05T04:07:16.548Z,100636.40
2023-05-05T04:09:49.919Z,100640.00
2023-05-05T04:12:23.226Z,100637.00
2023-05-05T04:14:56.717Z,100639.00
2023-05-05T04:17:30.543Z,100640.00
2023-05-05T04:20:04.729Z,100643.40
2023-05-05T04:22:38.434Z,100639.80
2023-05-05T04:25:12.635Z,100640.40
2023-05-05T04:27:45.948Z,100640.60
2023-05-05T04:30:20.469Z,100634.80
2023-05-05T04:32:53.804Z,100637.20
2023-05-05T04:35:27.371Z,100641.60
2023-05-05T04:38:01.300Z,100638.40
2023-05-05T04:40:35.230Z,100628.00
2023-05-05T04:43:08.579Z,100624.20
2023-05-05T04:45:42.157Z,100614.20
2023-05-05T04:48:15.775Z,100627.00
2023-05-05T04:50:48.972Z,100609.80
2023-05-05T04:53:22.167Z,100608.60
2023-05-05T04:55:56.179Z,100613.40
2023-05-05T04:58:29.701Z,100572.60
2023-05-05T05:01:03.578Z,100564.20
2023-05-05T05:03:36.956Z,100564.20
2023-05-05T05:06:10.616Z,100565.60
2023-05-05T05:08:43.789Z,100558.40
2023-05-05T05:11:17.066Z,100562.60
2023-05-05T05:13:50.360Z,100546.20
2023-05-05T05:16:23.653Z,100573.80
2023-05-05T05:18:57.058Z,100586.00
2023-05-05T05:21:31.890Z,100579.00
2023-05-05T05:24:06.375Z,100541.60
2023-05-05T05:26:39.696Z,100557.40
2023-05-05T05:29:13.210Z,100547.60
2023-05-05T05:31:46.601Z,100529.80
2023-05-05T05:34:20.612Z,100555.80
2023-05-05T05:36:53.925Z,100566.40
2023-05-05T05:39:28.264Z,100587.40
2023-05-05T05:42:02.959Z,100581.60
2023-05-05T05:44:36.716Z,100595.00
2023-05-05T05:47:11.057Z,100578.00
2023-05-05T05:49:44.275Z,100585.60
2023-05-05T05:52:17.653Z,100623.00
2023-05-05T05:54:51.516Z,100614.20
2023-05-05T05:57:24.945Z,100621.80
2023-05-05T06:00:00.401Z,100647.00
2023-05-05T06:02:45.055Z,100660.60
2023-05-05T06:05:21.019Z,100657.40
2023-05-05T06:07:55.164Z,100645.20
2023-05-05T06:10:29.491Z,100627.60
2023-05-05T06:13:10.344Z,100601.00
2023-05-05T06:15:46.226Z,100543.60
2023-05-05T06:18:20.356Z,100539.20
2023-05-05T06:20:55.122Z,100548.60
2023-05-05T06:23:31.281Z,100559.40
2023-05-05T06:26:09.294Z,100559.80
2023-05-05T06:28:42.542Z,100557.00
2023-05-05T06:31:15.735Z,100569.00
2023-05-05T06:33:48.912Z,100551.20
2023-05-05T06:36:22.156Z,100544.20
2023-05-05T06:38:55.934Z,100568.80
2023-05-05T06:41:29.269Z,100560.80
2023-05-05T06:44:02.502Z,100563.60
2023-05-05T06:46:35.774Z,100597.60
2023-05-05T06:49:09.036Z,100565.00
2023-05-05T06:51:42.946Z,100598.40
2023-05-05T06:54:16.300Z,100645.00
2023-05-05T06:56:49.633Z,100607.40
2023-05-05T06:59:22.841Z,100640.00
2023-05-05T07:01:56.635Z,100646.60
2023-05-05T07:04:29.867Z,100635.40
2023-05-05T07:07:03.120Z,100621.40
2023-05-05T07:09:37.744Z,100624.80
2023-05-05T07:12:11.560Z,100615.80
2023-05-05T07:14:44.746Z,100604.40
2023-05-05T07:17:17.938Z,100605.00
2023-05-05T07:19:51.530Z,100609.40
2023-05-05T07:22:24.664Z,100615.60
2023-05-05T07:24:58.085Z,100639.40
2023-05-05T07:27:31.378Z,100637.00
2023-05-05T07:30:10.179Z,100621.40
2023-05-05T07:32:49.408Z,100650.20
2023-05-05T07:35:23.194Z,100648.40
2023-05-05T07:37:56.363Z,100621.40
2023-05-05T07:40:29.765Z,100631.60
2023-05-05T07:43:02.920Z,100608.60
2023-05-05T07:45:36.457Z,100615.80
2023-05-05T07:48:09.749Z,100624.60
2023-05-05T07:50:43.144Z,100623.00
2023-05-05T07:53:16.315Z,100618.40
2023-05-05T07:55:49.533Z,100620.00
2023-05-05T07:58:22.732Z,100617.20
2023-05-05T08:00:55.931Z,100620.40
2023-05-05T08:03:29.549Z,100619.40
2023-05-05T08:06:11.745Z,100619.60
2023-05-05T08:08:45.007Z,100620.60
2023-05-05T08:11:18.445Z,100627.40
2023-05-05T08:13:51.652Z,100611.60
2023-05-05T08:16:24.855Z,100615.00
2023-05-05T08:18:58.169Z,100625.20
2023-05-05T08:21:31.995Z,100618.20
2023-05-05T08:24:05.431Z,100623.00
2023-05-05T08:26:38.543Z,100619.40
2023-05-05T08:29:11.783Z,100620.80
2023-05-05T08:31:45.527Z,100621.80
2023-05-05T08:34:18.690Z,100620.00
2023-05-05T08:36:52.069Z,100625.80
2023-05-05T08:39:25.182Z,100622.80
2023-05-05T08:41:58.672Z,100620.80
2023-05-05T08:44:32.259Z,100621.00
2023-05-05T08:47:07.266Z,100626.00
2023-05-05T08:49:47.767Z,100619.20
2023-05-05T08:52:26.495Z,100627.20
2023-05-05T08:55:08.879Z,100625.80
2023-05-05T08:57:52.116Z,100622.20
2023-05-05T09:00:27.587Z,100625.20
2023-05-05T09:03:04.412Z,100628.80
2023-05-05T09:05:38.444Z,100629.60
2023-05-05T09:08:13.073Z,100631.00
2023-05-05T09:10:46.660Z,100630.20
2023-05-05T09:13:28.868Z,100624.80
2023-05-05T09:16:02.295Z,100625.40
2023-05-05T09:18:38.029Z,100625.60
2023-05-05T09:21:26.005Z,100634.20
2023-05-05T09:24:15.613Z,100632.40
2023-05-05T09:26:50.218Z,100629.00
2023-05-05T09:29:24.401Z,100634.80
2023-05-05T09:32:09.045Z,100625.20
2023-05-05T09:34:42.562Z,100624.20
2023-05-05T09:37:30.400Z,100630.60
2023-05-05T09:40:05.341Z,100627.80
2023-05-05T09:42:40.771Z,100633.20
2023-05-05T09:45:29.968Z,100640.20
2023-05-05T09:48:03.430Z,100638.00
2023-05-05T09:50:47.075Z,100645.80
2023-05-05T09:53:20.662Z,100651.80
2023-05-05T09:56:02.748Z,100641.80
2023-05-05T09:58:36.073Z,100644.40
2023-05-05T10:01:24.336Z,100643.60
2023-05-05T10:03:57.534Z,100647.60
2023-05-05T10:06:47.497Z,100654.40
2023-05-05T10:09:20.762Z,100643.20
2023-05-05T10:11:54.593Z,100645.00
2023-05-05T10:14:32.972Z,100643.40
2023-05-05T10:17:07.563Z,100643.60
2023-05-05T10:19:42.936Z,100642.00
2023-05-05T10:22:16.630Z,100646.40
2023-05-05T10:24:58.332Z,100648.80
2023-05-05T10:27:41.174Z,100646.60
2023-05-05T10:30:21.715Z,100650.00
2023-05-05T10:33:26.726Z,100648.60
2023-05-05T10:36:02.247Z,100654.40
2023-05-05T10:38:36.729Z,100681.20
2023-05-05T10:41:11.576Z,100678.80
2023-05-05T10:43:46.755Z,100668.40
2023-05-05T10:46:20.440Z,100661.40
2023-05-05T10:49:05.982Z,100677.80
2023-05-05T10:51:58.831Z,100669.60
2023-05-05T10:54:40.845Z,100668.80
2023-05-05T10:57:15.891Z,100658.20
2023-05-05T10:59:49.139Z,100660.80
2023-05-05T11:02:30.484Z,100664.60
2023-05-05T11:05:21.451Z,100658.00
2023-05-05T11:07:55.380Z,100650.60
2023-05-05T11:10:44.733Z,100654.20
2023-05-05T11:13:24.589Z,100655.40
2023-05-05T11:15:59.433Z,100650.00
2023-05-05T11:18:38.970Z,100654.00
2023-05-05T11:21:17.960Z,100646.00
2023-05-05T11:23:55.005Z,100642.80
2023-05-05T11:26:54.878Z,100636.20
2023-05-05T11:29:28.087Z,100631.40
2023-05-05T11:32:16.797Z,100632.00
2023-05-05T11:34:56.529Z,100628.20
2023-05-05T11:37:31.511Z,100629.40
2023-05-05T11:40:22.094Z,100616.40
2023-05-05T11:43:08.548Z,100618.80
2023-05-05T11:45:41.805Z,100621.40
2023-05-05T11:48:30.665Z,100616.20
2023-05-05T11:51:05.461Z,100612.60
2023-05-05T11:53:42.728Z,100607.60
2023-05-05T11:56:19.403Z,100616.60
2023-05-05T11:59:09.788Z,100617.60
2023-05-05T12:01:45.541Z,100619.40
2023-05-05T12:04:19.611Z,100611.60
2023-05-05T12:06:52.984Z,100611.20
2023-05-05T12:09:26.954Z,100603.00
2023-05-05T12:12:01.757Z,100607.00
2023-05-05T12:14:36.004Z,100600.60
2023-05-05T12:17:11.746Z,100604.40
2023-05-05T12:19:52.634Z,100607.20
2023-05-05T12:22:28.450Z,100600.40
2023-05-05T12:25:03.405Z,100595.60
2023-05-05T12:27:37.035Z,100590.00
2023-05-05T12:30:20.027Z,100586.40
2023-05-05T12:33:01.775Z,100584.60
2023-05-05T12:35:35.894Z,100587.80
2023-05-05T12:38:09.105Z,100580.80
2023-05-05T12:40:53.034Z,100588.80
2023-05-05T12:43:34.952Z,100579.60
2023-05-05T12:46:13.620Z,100578.80
2023-05-05T12:48:48.296Z,100583.80
2023-05-05T12:51:24.223Z,100575.80
2023-05-05T12:54:08.693Z,100576.00
2023-05-05T12:56:44.381Z,100574.60
2023-05-05T12:59:33.118Z,100571.40
2023-05-05T13:02:06.444Z,100570.40
2023-05-05T13:04:53.165Z,100570.80
2023-05-05T13:07:26.615Z,100571.00
2023-05-05T13:10:12.951Z,100574.80
2023-05-05T13:12:46.145Z,100564.00
2023-05-05T13:15:20.098Z,100568.80
2023-05-05T13:17:59.471Z,100563.60
2023-05-05T13:20:32.735Z,100560.80
2023-05-05T13:23:06.056Z,100562.20
2023-05-05T13:25:40.043Z,100562.80
2023-05-05T13:28:13.820Z,100561.00
2023-05-05T13:30:47.544Z,100553.80
2023-05-05T13:33:20.860Z,100552.80
2023-05-05T13:35:54.028Z,100553.60
2023-05-05T13:38:27.947Z,100552.80
2023-05-05T13:41:01.369Z,100542.40
2023-05-05T13:43:36.108Z,100547.00
2023-05-05T13:46:19.817Z,100544.60
2023-05-05T13:48:56.581Z,100547.00
2023-05-05T13:51:30.797Z,100533.40
2023-05-05T13:54:04.186Z,100533.20
2023-05-05T13:56:38.163Z,100541.00
2023-05-05T13:59:11.627Z,100528.20
2023-05-05T14:01:45.004Z,100527.20
2023-05-05T14:04:18.131Z,100528.80
2023-05-05T14:06:51.411Z,100523.00
2023-05-05T14:09:24.954Z,100517.00
2023-05-05T14:11:58.998Z,100512.20
2023-05-05T14:14:32.367Z,100515.40
2023-05-05T14:17:05.871Z,100507.40
2023-05-05T14:19:39.209Z,100509.60
2023-05-05T14:22:12.402Z,100508.20
2023-05-05T14:24:45.596Z,100510.80
2023-05-05T14:27:19.354Z,100510.20
2023-05-05T14:29:52.438Z,100506.80
2023-05-05T14:32:25.841Z,100500.80
2023-05-05T14:34:59.018Z,100499.00
2023-05-05T14:37:36.640Z,100500.20
2023-05-05T14:40:12.659Z,100498.00
2023-05-05T14:42:45.890Z,100500.00
2023-05-05T14:45:19.109Z,100500.60
2023-05-05T14:47:52.534Z,100497.20
2023-05-05T14:50:26.574Z,100500.80
2023-05-05T14:52:59.788Z,100503.80
2023-05-05T14:55:33.028Z,100500.80
2023-05-05T14:58:06.269Z,100495.00
2023-05-05T15:00:39.398Z,100497.40
2023-05-05T15:03:12.640Z,100499.80
2023-05-05T15:05:46.071Z,100502.80
2023-05-05T15:08:19.678Z,100496.20
2023-05-05T15:10:52.844Z,100495.20
2023-05-05T15:13:26.034Z,100485.80
2023-05-05T15:15:59.143Z,100488.40
2023-05-05T15:18:32.496Z,100487.40
2023-05-05T15:21:06.079Z,100481.00
2023-05-05T17:38:45.572Z,100475.60
2023-05-05T17:41:18.761Z,100474.80
2023-05-05T17:43:51.884Z,100485.40
2023-05-05T17:46:25.181Z,100478.80
2023-05-05T17:48:58.499Z,100477.60
2023-05-05T17:51:31.833Z,100479.60
2023-05-05T17:54:05.410Z,100482.80
2023-05-05T17:56:38.628Z,100485.40
2023-05-05T17:59:11.941Z,100475.60
2023-05-05T18:01:45.286Z,100479.00
2023-05-05T18:04:18.678Z,100479.00
2023-05-05T18:06:52.117Z,100482.00
2023-05-05T18:09:25.506Z,100490.00
2023-05-05T18:11:58.685Z,100488.60
2023-05-05T18:14:31.806Z,100494.40
2023-05-05T18:17:05.160Z,100497.80
2023-05-05T18:19:42.369Z,100501.80
2023-05-05T18:22:16.487Z,100499.20
2023-05-05T18:24:51.681Z,100506.60
2023-05-05T18:27:24.854Z,100510.40
2023-05-05T18:29:58.416Z,100514.00
2023-05-05T18:32:31.865Z,100512.60
2023-05-05T18:35:06.449Z,100513.80
2023-05-05T18:37:39.729Z,100518.60
2023-05-05T18:40:14.917Z,100525.00
2023-05-05T18:42:48.163Z,100523.20
2023-05-05T18:45:21.696Z,100531.20
2023-05-05T18:47:55.021Z,100530.40
2023-05-05T18:50:28.458Z,100523.20
2023-05-05T18:53:01.636Z,100532.40
2023-05-05T18:55:34.793Z,100528.40
2023-05-05T18:58:08.338Z,100539.20
2023-05-05T19:00:42.717Z,100542.80
2023-05-05T19:03:16.357Z,100547.00
2023-05-05T19:05:49.551Z,100540.20
2023-05-05T19:08:22.749Z,100544.20
2023-05-05T19:10:55.877Z,100538.40
2023-05-05T19:13:29.003Z,100545.20
2023-05-05T19:16:02.452Z,100545.00
2023-05-05T19:18:35.773Z,100537.80
2023-05-05T19:21:09.044Z,100545.60
2023-05-05T19:23:42.193Z,100536.00
2023-05-05T19:26:16.236Z,100532.00
2023-05-05T19:28:49.326Z,100532.80
2023-05-05T19:31:27.813Z,100531.60
2023-05-05T19:34:06.095Z,100538.40
2023-05-05T19:36:39.331Z,100532.80
2023-05-05T19:39:14.530Z,100527.60
2023-05-05T19:41:49.088Z,100525.40
2023-05-05T19:44:23.834Z,100523.60
2023-05-05T19:46:57.749Z,100520.20
2023-05-05T19:49:31.008Z,100514.20
2023-05-05T19:52:04.753Z,100521.00
2023-05-05T19:54:37.900Z,100518.60
2023-05-05T19:57:11.097Z,100524.80
2023-05-05T19:59:44.805Z,100525.80
2023-05-05T20:02:18.612Z,100522.00
2023-05-05T20:04:52.102Z,100523.80
2023-05-05T20:07:25.238Z,100527.00
2023-05-05T20:09:58.766Z,100526.40
2023-05-05T20:12:32.135Z,100529.60
2023-05-05T20:15:05.879Z,100532.00
2023-05-05T20:17:39.146Z,100525.20
2023-05-05T20:20:16.183Z,100522.40
2023-05-05T20:22:50.371Z,100519.40
2023-05-05T20:25:23.517Z,100516.60
2023-05-05T20:27:56.705Z,100512.20
2023-05-05T20:30:29.904Z,100508.60
2023-05-05T20:33:03.194Z,100514.00
2023-05-05T20:35:37.064Z,100503.60
2023-05-05T20:38:10.209Z,100493.40
2023-05-05T20:40:44.140Z,100495.20
2023-05-05T20:43:17.361Z,100492.40
2023-05-05T20:45:50.515Z,100496.20
2023-05-05T20:48:23.645Z,100486.20
2023-05-05T20:50:58.856Z,100479.00
2023-05-05T20:53:32.003Z,100486.80
2023-05-05T20:56:06.551Z,100483.20
2023-05-05T20:58:41.697Z,100480.00
2023-05-05T21:01:18.400Z,100477.20
2023-05-05T21:03:51.535Z,100482.80
2023-05-05T21:06:24.695Z,100478.40
2023-05-05T21:08:57.808Z,100477.80
2023-05-05T21:11:30.956Z,100481.80
2023-05-05T21:14:04.260Z,100481.20
2023-05-05T21:16:37.432Z,100480.00
2023-05-05T21:19:10.677Z,100482.00
2023-05-05T21:21:44.358Z,100487.80
2023-05-05T21:24:18.566Z,100485.80
2023-05-05T21:26:51.698Z,100483.20
2023-05-05T21:29:26.274Z,100480.00
2023-05-05T21:31:59.473Z,100476.80
2023-05-05T21:34:32.558Z,100469.80
2023-05-05T21:37:06.225Z,100468.40
2023-05-05T21:39:39.462Z,100469.00
2023-05-05T21:42:12.642Z,100463.20
2023-05-05T21:44:45.830Z,100470.20
2023-05-05T21:47:19.291Z,100475.60
2023-05-05T21:49:52.529Z,100474.40
2023-05-05T21:52:25.790Z,100474.80
2023-05-05T21:54:59.014Z,100472.60
2023-05-05T21:57:32.245Z,100473.60
2023-05-05T22:00:09.577Z,100477.80
2023-05-05T22:02:46.155Z,100475.60
2023-05-05T22:05:19.333Z,100474.00
2023-05-05T22:07:53.027Z,100468.80
2023-05-05T22:10:27.563Z,100468.00
2023-05-05T22:13:00.815Z,100474.00
2023-05-05T22:15:46.202Z,100474.40
2023-05-05T22:18:20.577Z,100479.80
2023-05-05T22:20:54.081Z,100479.60
2023-05-05T22:23:27.305Z,100480.40
2023-05-05T22:26:00.916Z,100464.40
2023-05-05T22:28:34.167Z,100457.40
2023-05-05T22:31:07.671Z,100462.80
2023-05-05T22:33:40.955Z,100465.40
2023-05-05T22:36:14.349Z,100469.40
2023-05-05T22:38:47.430Z,100460.60
2023-05-05T22:41:21.150Z,100464.40
2023-05-05T22:43:54.462Z,100458.00
2023-05-05T22:46:27.653Z,100445.20
2023-05-05T22:49:00.941Z,100436.00
2023-05-05T22:51:34.104Z,100434.60
2023-05-05T22:54:07.622Z,100441.20
2023-05-05T22:56:41.414Z,100443.80
2023-05-05T22:59:14.619Z,100441.00
2023-05-05T23:01:47.938Z,100434.80
2023-05-05T23:04:21.563Z,100441.80
2023-05-05T23:06:54.726Z,100447.60
2023-05-05T23:09:27.910Z,100449.20
2023-05-05T23:12:01.997Z,100459.20
2023-05-05T23:14:35.197Z,100456.40
2023-05-05T23:17:08.458Z,100455.20
2023-05-05T23:19:41.870Z,100447.60
2023-05-05T23:22:15.487Z,100452.40
2023-05-05T23:24:48.689Z,100443.80
2023-05-05T23:27:21.839Z,100445.00
2023-05-05T23:29:55.063Z,100438.20
2023-05-05T23:32:28.232Z,100435.00
2023-05-05T23:35:01.447Z,100438.60
2023-05-05T23:37:34.645Z,100434.00
2023-05-05T23:40:10.166Z,100420.80
2023-05-05T23:42:43.690Z,100418.20
2023-05-05T23:45:19.317Z,100417.00
2023-05-05T23:47:52.966Z,100416.00
2023-05-05T23:50:27.879Z,100413.60
2023-05-05T23:53:01.157Z,100405.40
2023-05-05T23:55:34.485Z,100401.80
2023-05-05T23:58:07.662Z,100395.20
